createdAt,value
2023-01-13T00:01:16.624Z,55.00
2023-01-13T00:03:44.457Z,55.23
2023-01-13T00:06:19.791Z,55.05
2023-01-13T00:08:51.606Z,55.09
2023-01-13T00:11:19.918Z,55.04
2023-01-13T00:13:47.364Z,55.09
2023-01-13T00:16:18.428Z,55.13
2023-01-13T00:18:46.969Z,55.14
2023-01-13T00:21:16.985Z,55.18
2023-01-13T00:23:44.831Z,55.22
2023-01-13T00:26:15.580Z,55.21
2023-01-13T00:28:42.719Z,55.24
2023-01-13T00:31:12.779Z,55.24
2023-01-13T00:33:40.527Z,55.21
2023-01-13T00:36:09.526Z,55.39
2023-01-13T00:38:38.938Z,55.30
2023-01-13T00:41:09.083Z,55.29
2023-01-13T00:43:37.639Z,55.21
2023-01-13T00:46:07.162Z,55.33
2023-01-13T00:48:35.009Z,55.37
2023-01-13T00:51:04.110Z,55.32
2023-01-13T00:53:35.760Z,55.30
2023-01-13T00:56:07.942Z,55.41
2023-01-13T00:58:36.232Z,55.41
2023-01-13T01:01:05.845Z,55.43
2023-01-13T01:03:33.744Z,55.52
2023-01-13T01:06:22.218Z,55.49
2023-01-13T01:08:49.788Z,55.51
2023-01-13T01:11:23.389Z,55.36
2023-01-13T01:13:52.729Z,55.59
2023-01-13T01:16:22.865Z,55.57
2023-01-13T01:18:51.731Z,55.57
2023-01-13T01:21:19.699Z,55.66
2023-01-13T01:23:47.237Z,55.55
2023-01-13T01:26:17.129Z,55.68
2023-01-13T01:28:45.631Z,55.80
2023-01-13T01:31:20.394Z,55.74
2023-01-13T01:33:48.557Z,55.69
2023-01-13T01:36:18.181Z,55.80
2023-01-13T01:38:45.918Z,55.65
2023-01-13T01:41:17.022Z,55.82
2023-01-13T01:44:04.084Z,55.73
2023-01-13T01:46:33.881Z,55.90
2023-01-13T01:49:07.653Z,55.79
2023-01-13T01:51:50.209Z,55.82
2023-01-13T01:54:27.654Z,55.83
2023-01-13T01:56:55.528Z,55.86
2023-01-13T01:59:28.576Z,55.87
2023-01-13T02:01:56.274Z,56.02
2023-01-13T02:04:28.566Z,56.01
2023-01-13T02:06:57.139Z,56.06
2023-01-13T02:09:26.420Z,56.06
2023-01-13T02:12:11.959Z,56.11
2023-01-13T02:14:40.158Z,56.08
2023-01-13T02:17:45.718Z,56.06
2023-01-13T02:20:38.882Z,56.19
2023-01-13T02:23:57.935Z,56.17
2023-01-13T02:26:55.767Z,56.25
2023-01-13T02:30:09.432Z,56.01
2023-01-13T02:32:50.074Z,56.14
2023-01-13T02:35:28.730Z,56.06
2023-01-13T02:37:58.033Z,56.18
2023-01-13T02:40:37.195Z,56.22
2023-01-13T02:43:22.577Z,56.25
2023-01-13T02:46:19.888Z,56.24
2023-01-13T02:48:50.976Z,56.23
2023-01-13T02:51:21.518Z,56.22
2023-01-13T02:53:52.647Z,56.36
2023-01-13T02:56:21.398Z,56.30
2023-01-13T02:58:49.612Z,56.39
2023-01-13T03:01:17.396Z,56.32
2023-01-13T03:03:44.740Z,56.45
2023-01-13T03:06:30.452Z,56.39
2023-01-13T03:09:30.129Z,56.50
2023-01-13T03:12:15.855Z,56.46
2023-01-13T03:14:48.279Z,56.45
2023-01-13T03:17:18.656Z,56.40
2023-01-13T03:20:04.710Z,56.36
2023-01-13T03:22:38.400Z,56.44
2023-01-13T03:25:40.793Z,56.45
2023-01-13T03:28:15.739Z,56.46
2023-01-13T03:30:59.952Z,56.46
2023-01-13T03:33:37.661Z,56.46
2023-01-13T03:36:09.355Z,56.54
2023-01-13T03:38:50.982Z,56.53
2023-01-13T03:41:34.161Z,56.42
2023-01-13T03:44:24.830Z,56.61
2023-01-13T03:47:01.541Z,56.52
2023-01-13T03:49:37.157Z,56.57
2023-01-13T03:52:09.929Z,56.48
2023-01-13T03:54:46.830Z,56.49
2023-01-13T03:57:17.404Z,56.58
2023-01-13T03:59:49.047Z,56.69
2023-01-13T04:02:43.968Z,56.44
2023-01-13T04:05:12.036Z,56.65
2023-01-13T04:07:53.097Z,56.57
2023-01-13T04:10:36.906Z,56.55
2023-01-13T04:13:14.710Z,56.70
2023-01-13T04:15:44.338Z,56.71
2023-01-13T04:18:31.299Z,56.65
2023-01-13T04:21:01.338Z,56.66
2023-01-13T04:23:29.220Z,56.66
2023-01-13T04:25:56.926Z,56.73
2023-01-13T04:28:24.193Z,56.73
2023-01-13T04:30:51.457Z,56.79
2023-01-13T04:33:19.745Z,56.66
2023-01-13T04:35:47.674Z,56.64
2023-01-13T04:38:17.262Z,56.61
2023-01-13T04:40:44.768Z,56.64
2023-01-13T04:43:12.670Z,56.74
2023-01-13T04:45:39.596Z,56.87
2023-01-13T04:48:06.982Z,56.70
2023-01-13T04:50:34.224Z,56.75
2023-01-13T04:53:01.486Z,56.93
2023-01-13T04:55:28.933Z,56.86
2023-01-13T04:57:56.009Z,56.78
2023-01-13T05:00:23.974Z,56.78
2023-01-13T05:02:52.415Z,56.79
2023-01-13T05:05:19.439Z,56.84
2023-01-13T05:07:46.609Z,56.77
2023-01-13T05:10:13.865Z,56.80
2023-01-13T05:13:00.467Z,56.82
2023-01-13T05:15:46.114Z,56.97
2023-01-13T05:18:13.401Z,56.84
2023-01-13T05:20:40.624Z,56.83
2023-01-13T05:23:26.815Z,56.87
2023-01-13T05:25:53.938Z,56.92
2023-01-13T05:28:21.188Z,56.87
2023-01-13T05:30:52.759Z,56.99
2023-01-13T05:33:21.021Z,56.97
2023-01-13T05:35:48.974Z,56.88
2023-01-13T05:38:17.387Z,56.89
2023-01-13T05:41:03.295Z,56.82
2023-01-13T05:43:30.792Z,56.95
2023-01-13T05:46:02.800Z,56.90
2023-01-13T05:48:35.657Z,56.96
2023-01-13T05:51:04.978Z,57.02
2023-01-13T05:53:32.390Z,56.98
2023-01-13T05:56:00.170Z,56.94
2023-01-13T05:58:28.517Z,57.02
2023-01-13T06:01:07.455Z,56.94
2023-01-13T06:03:34.790Z,57.02
2023-01-13T06:06:04.325Z,57.06
2023-01-13T06:08:31.952Z,56.98
2023-01-13T06:10:59.036Z,57.13
2023-01-13T06:13:26.022Z,57.04
2023-01-13T06:15:59.466Z,57.16
2023-01-13T06:18:27.195Z,56.95
2023-01-13T06:20:54.268Z,57.12
2023-01-13T06:23:21.414Z,57.02
2023-01-13T06:26:14.583Z,57.16
2023-01-13T06:28:41.680Z,57.12
2023-01-13T06:31:10.627Z,57.01
2023-01-13T06:33:42.835Z,57.18
2023-01-13T06:36:22.421Z,57.09
2023-01-13T06:38:53.732Z,57.01
2023-01-13T06:41:41.326Z,57.11
2023-01-13T06:44:14.606Z,57.15
2023-01-13T06:46:41.874Z,57.13
2023-01-13T06:49:09.050Z,57.20
2023-01-13T06:51:36.068Z,57.32
2023-01-13T06:54:03.215Z,57.25
2023-01-13T06:56:30.138Z,57.12
2023-01-13T06:58:57.047Z,57.10
2023-01-13T07:01:24.128Z,57.22
2023-01-13T07:03:51.802Z,57.32
2023-01-13T07:06:18.886Z,57.30
2023-01-13T07:08:45.906Z,57.20
2023-01-13T07:11:12.834Z,57.39
2023-01-13T07:13:58.321Z,57.61
2023-01-13T07:16:28.284Z,57.96
2023-01-13T07:18:58.159Z,57.71
2023-01-13T07:21:25.126Z,57.39
2023-01-13T07:23:52.142Z,57.24
2023-01-13T07:26:19.114Z,57.00
2023-01-13T07:28:46.059Z,56.94
2023-01-13T07:31:17.167Z,56.77
2023-01-13T07:33:44.275Z,56.52
2023-01-13T07:36:11.588Z,56.58
2023-01-13T07:38:40.057Z,56.38
2023-01-13T07:41:42.898Z,56.24
2023-01-13T07:44:10.958Z,56.19
2023-01-13T07:46:39.045Z,56.19
2023-01-13T07:49:06.577Z,56.19
2023-01-13T07:51:39.786Z,56.18
2023-01-13T07:54:07.397Z,56.00
2023-01-13T07:56:34.515Z,55.92
2023-01-13T07:59:01.852Z,55.84
2023-01-13T08:01:29.249Z,55.98
2023-01-13T08:03:56.569Z,55.70
2023-01-13T08:06:23.705Z,55.80
2023-01-13T08:08:51.554Z,55.69
2023-01-13T08:11:22.645Z,55.75
2023-01-13T08:13:50.528Z,55.42
2023-01-13T08:16:18.100Z,55.54
2023-01-13T08:18:45.344Z,55.48
2023-01-13T08:21:14.354Z,55.46
2023-01-13T08:23:43.790Z,55.45
2023-01-13T08:26:14.350Z,55.35
2023-01-13T08:28:41.909Z,55.31
2023-01-13T08:31:14.465Z,55.14
2023-01-13T08:33:41.893Z,55.25
2023-01-13T08:36:12.507Z,55.15
2023-01-13T08:38:40.413Z,55.19
2023-01-13T08:41:37.275Z,55.13
2023-01-13T08:44:05.308Z,55.05
2023-01-13T08:46:32.554Z,54.94
2023-01-13T08:48:59.501Z,54.98
2023-01-13T08:51:26.508Z,54.74
2023-01-13T08:53:53.405Z,54.90
2023-01-13T08:56:20.472Z,54.83
2023-01-13T08:58:47.564Z,54.79
2023-01-13T09:01:21.706Z,54.69
2023-01-13T09:03:48.829Z,54.59
2023-01-13T09:06:15.806Z,54.71
2023-01-13T09:08:42.900Z,54.69
2023-01-13T09:11:44.828Z,54.71
2023-01-13T09:14:11.906Z,54.59
2023-01-13T09:16:38.835Z,54.54
2023-01-13T09:19:05.903Z,54.47
2023-01-13T09:21:33.435Z,54.44
2023-01-13T09:24:00.503Z,54.45
2023-01-13T09:26:27.439Z,54.48
2023-01-13T09:28:54.477Z,54.35
2023-01-13T09:31:21.438Z,54.39
2023-01-13T09:34:07.302Z,54.39
2023-01-13T09:36:34.391Z,54.35
2023-01-13T09:39:01.280Z,54.34
2023-01-13T09:41:50.022Z,54.41
2023-01-13T09:44:36.577Z,54.29
2023-01-13T09:47:07.323Z,54.34
2023-01-13T09:49:39.354Z,54.38
2023-01-13T09:52:25.773Z,54.40
2023-01-13T09:55:10.139Z,54.42
2023-01-13T09:57:40.059Z,54.41
2023-01-13T10:00:14.118Z,54.41
2023-01-13T10:03:09.400Z,54.33
2023-01-13T10:05:44.409Z,54.47
2023-01-13T10:08:16.671Z,54.48
2023-01-13T10:10:48.802Z,54.36
2023-01-13T10:13:38.090Z,54.45
2023-01-13T10:16:11.185Z,54.23
2023-01-13T10:19:06.158Z,54.21
2023-01-13T10:21:42.333Z,54.14
2023-01-13T10:24:36.862Z,54.18
2023-01-13T10:27:12.817Z,54.20
2023-01-13T10:29:39.878Z,54.17
2023-01-13T10:32:06.882Z,54.08
2023-01-13T10:34:58.180Z,54.13
2023-01-13T10:37:28.450Z,54.16
2023-01-13T10:39:57.660Z,54.15
2023-01-13T10:42:25.778Z,54.10
2023-01-13T10:44:52.867Z,54.05
2023-01-13T10:47:29.439Z,54.05
2023-01-13T10:50:01.531Z,54.10
2023-01-13T10:52:36.989Z,53.95
2023-01-13T10:55:23.986Z,54.03
2023-01-13T10:57:50.982Z,53.90
2023-01-13T11:00:33.083Z,53.92
2023-01-13T11:03:15.790Z,53.98
2023-01-13T11:05:51.727Z,53.88
2023-01-13T11:08:22.035Z,53.84
2023-01-13T11:10:52.131Z,53.79
2023-01-13T11:13:57.885Z,53.79
2023-01-13T11:16:26.357Z,53.76
2023-01-13T11:19:13.289Z,53.70
2023-01-13T11:21:55.444Z,53.67
2023-01-13T11:24:38.235Z,53.66
2023-01-13T11:27:13.491Z,53.72
2023-01-13T11:30:10.163Z,53.55
2023-01-13T11:32:55.305Z,53.66
2023-01-13T11:35:22.967Z,53.61
2023-01-13T11:38:02.029Z,53.62
2023-01-13T11:40:41.353Z,53.79
2023-01-13T11:43:20.703Z,53.77
2023-01-13T11:46:00.232Z,53.90
2023-01-13T11:48:31.703Z,54.01
2023-01-13T11:51:13.969Z,54.25
2023-01-13T11:54:18.352Z,54.52
2023-01-13T11:57:03.995Z,54.94
2023-01-13T11:59:54.007Z,55.17
2023-01-13T12:02:34.046Z,55.62
2023-01-13T12:05:26.186Z,55.86
2023-01-13T12:08:16.859Z,56.15
2023-01-13T12:10:46.952Z,55.81
2023-01-13T12:13:58.250Z,55.58
2023-01-13T12:16:30.789Z,55.80
2023-01-13T12:19:22.017Z,55.77
2023-01-13T12:22:13.677Z,55.74
2023-01-13T12:24:52.855Z,55.59
2023-01-13T12:27:58.434Z,55.64
2023-01-13T12:30:46.014Z,55.67
2023-01-13T12:33:20.946Z,56.03
2023-01-13T12:36:02.618Z,56.29
2023-01-13T12:38:49.859Z,56.27
2023-01-13T12:41:24.831Z,56.36
2023-01-13T12:44:12.030Z,56.25
2023-01-13T12:46:56.049Z,56.40
2023-01-13T12:49:33.030Z,56.41
2023-01-13T12:52:11.731Z,56.47
2023-01-13T12:54:41.693Z,56.48
2023-01-13T12:57:27.608Z,56.56
2023-01-13T13:00:03.872Z,56.63
2023-01-13T13:02:39.829Z,56.43
2023-01-13T13:05:36.392Z,56.51
2023-01-13T13:08:40.985Z,56.82
2023-01-13T13:11:32.827Z,56.79
2023-01-13T13:14:11.671Z,57.39
2023-01-13T13:16:47.188Z,57.60
2023-01-13T13:19:20.305Z,57.80
2023-01-13T13:22:12.266Z,57.82
2023-01-13T13:24:43.420Z,57.88
2023-01-13T13:27:24.995Z,57.61
2023-01-13T13:30:12.960Z,57.78
2023-01-13T13:32:53.850Z,57.83
2023-01-13T13:35:58.995Z,57.72
2023-01-13T13:39:00.757Z,57.49
2023-01-13T13:41:48.482Z,57.47
2023-01-13T13:44:39.162Z,57.31
2023-01-13T13:47:07.526Z,57.35
2023-01-13T13:49:36.155Z,57.15
2023-01-13T13:52:15.326Z,57.10
2023-01-13T13:54:47.921Z,57.06
2023-01-13T13:57:33.613Z,56.99
2023-01-13T14:00:01.761Z,56.84
2023-01-13T14:02:39.882Z,56.84
2023-01-13T14:05:08.342Z,56.87
2023-01-13T14:07:46.868Z,56.67
2023-01-13T14:10:27.870Z,56.62
2023-01-13T14:12:54.806Z,56.52
2023-01-13T14:15:35.053Z,56.46
2023-01-13T14:18:04.674Z,56.45
2023-01-13T14:20:32.371Z,56.33
2023-01-13T14:23:01.842Z,56.20
2023-01-13T14:25:36.832Z,56.23
2023-01-13T14:28:20.974Z,56.08
2023-01-13T14:30:50.223Z,56.03
2023-01-13T14:33:39.116Z,56.06
2023-01-13T14:36:19.229Z,55.78
2023-01-13T14:38:48.929Z,55.87
2023-01-13T14:41:24.089Z,55.66
2023-01-13T14:43:54.333Z,55.66
2023-01-13T14:46:23.385Z,55.74
2023-01-13T14:48:59.386Z,55.53
2023-01-13T14:51:29.191Z,55.46
2023-01-13T14:53:57.500Z,55.39
2023-01-13T14:56:44.500Z,55.32
2023-01-13T14:59:34.400Z,55.29
2023-01-13T15:02:22.767Z,55.22
2023-01-13T15:04:54.188Z,55.07
2023-01-13T15:07:29.657Z,55.00
2023-01-13T15:10:02.823Z,54.84
2023-01-13T15:12:36.027Z,54.97
2023-01-13T15:15:25.471Z,54.88
2023-01-13T15:17:53.127Z,54.92
2023-01-13T15:20:22.623Z,54.88
2023-01-13T15:22:51.661Z,54.80
2023-01-13T15:25:20.296Z,54.83
2023-01-13T15:27:52.281Z,54.83
2023-01-13T15:30:26.029Z,54.81
2023-01-13T15:32:55.329Z,54.76
2023-01-13T15:35:24.659Z,54.71
2023-01-13T15:37:52.675Z,54.73
2023-01-13T15:40:22.215Z,54.68
2023-01-13T15:43:07.935Z,54.61
2023-01-13T15:45:56.465Z,54.60
2023-01-13T15:48:25.460Z,54.65
2023-01-13T15:50:52.452Z,54.57
2023-01-13T15:53:20.004Z,54.47
2023-01-13T15:55:52.348Z,54.54
2023-01-13T15:58:24.310Z,54.60
2023-01-13T16:00:51.379Z,54.51
2023-01-13T16:03:18.507Z,54.48
2023-01-13T16:05:45.686Z,54.43
2023-01-13T16:08:20.622Z,54.40
2023-01-13T16:10:48.317Z,54.36
2023-01-13T16:13:16.804Z,54.42
2023-01-13T16:15:49.375Z,54.40
2023-01-13T16:18:24.433Z,54.50
2023-01-13T16:20:53.699Z,54.37
2023-01-13T16:23:21.814Z,54.26
2023-01-13T16:25:49.793Z,54.38
2023-01-13T16:28:22.049Z,54.16
2023-01-13T16:30:49.065Z,54.16
2023-01-13T16:33:16.081Z,54.19
2023-01-13T16:36:10.225Z,54.13
2023-01-13T16:38:30.892Z,54.23
2023-01-13T16:40:57.884Z,54.16
2023-01-13T16:43:25.006Z,54.19
2023-01-13T16:45:51.964Z,54.05
2023-01-13T16:48:20.596Z,54.06
2023-01-13T16:50:47.745Z,54.10
2023-01-13T16:53:15.215Z,54.04
2023-01-13T16:55:43.660Z,54.00
2023-01-13T16:58:18.030Z,54.16
2023-01-13T17:00:48.344Z,54.01
2023-01-13T17:03:16.626Z,53.92
2023-01-13T17:05:47.149Z,53.87
2023-01-13T17:08:18.000Z,53.93
2023-01-13T17:10:46.268Z,53.96
2023-01-13T17:13:16.955Z,53.91
2023-01-13T17:15:46.365Z,53.83
2023-01-13T17:18:13.850Z,53.79
2023-01-13T17:20:41.429Z,53.88
2023-01-13T17:23:08.592Z,53.89
2023-01-13T17:25:38.319Z,53.92
2023-01-13T17:28:05.200Z,53.90
2023-01-13T17:30:32.215Z,53.81
2023-01-13T17:32:59.204Z,53.90
2023-01-13T17:35:29.254Z,53.91
2023-01-13T17:37:56.499Z,53.72
2023-01-13T17:40:23.778Z,53.85
2023-01-13T17:42:51.036Z,53.71
2023-01-13T17:45:18.172Z,53.63
2023-01-13T17:47:47.397Z,53.72
2023-01-13T17:50:15.031Z,53.70
2023-01-13T17:52:42.357Z,53.58
2023-01-13T17:55:09.558Z,53.71
2023-01-13T17:57:36.910Z,53.63
2023-01-13T18:00:05.783Z,53.69
2023-01-13T18:02:39.420Z,53.62
2023-01-13T18:05:06.631Z,53.61
2023-01-13T18:07:37.214Z,53.69
2023-01-13T18:10:04.561Z,53.52
2023-01-13T18:12:31.624Z,53.54
2023-01-13T18:14:58.646Z,53.49
2023-01-13T18:17:25.654Z,53.59
2023-01-13T18:20:11.030Z,53.52
2023-01-13T18:22:56.817Z,53.46
2023-01-13T18:25:42.310Z,53.24
2023-01-13T18:28:09.347Z,53.39
2023-01-13T18:30:37.065Z,53.48
2023-01-13T18:33:04.253Z,53.34
2023-01-13T18:35:31.615Z,53.49
2023-01-13T18:37:58.653Z,53.50
2023-01-13T18:40:25.906Z,53.54
2023-01-13T18:42:54.982Z,53.55
2023-01-13T18:45:29.106Z,53.54
2023-01-13T18:47:58.563Z,53.63
2023-01-13T18:50:27.720Z,53.73
2023-01-13T18:52:56.422Z,53.66
2023-01-13T18:55:23.411Z,53.67
2023-01-13T18:57:51.424Z,53.77
2023-01-13T19:00:20.566Z,53.76
2023-01-13T19:02:48.645Z,53.77
2023-01-13T19:05:15.555Z,53.79
2023-01-13T19:07:46.512Z,53.64
2023-01-13T19:10:13.688Z,53.83
2023-01-13T19:12:40.599Z,53.76
2023-01-13T19:15:08.233Z,53.90
2023-01-13T19:17:36.663Z,53.80
2023-01-13T19:20:05.263Z,53.71
2023-01-13T19:22:34.495Z,53.76
2023-01-13T19:25:03.167Z,53.83
2023-01-13T19:27:30.796Z,53.77
2023-01-13T19:30:00.531Z,53.75
2023-01-13T19:32:28.878Z,53.84
2023-01-13T19:34:59.428Z,53.68
2023-01-13T19:37:34.369Z,53.71
2023-01-13T19:40:02.471Z,53.72
2023-01-13T19:42:48.537Z,53.67
2023-01-13T19:45:29.087Z,53.79
2023-01-13T19:47:57.290Z,53.78
2023-01-13T19:50:25.286Z,53.61
2023-01-13T19:52:52.343Z,53.62
2023-01-13T19:55:20.084Z,53.55
2023-01-13T19:57:47.277Z,53.62
2023-01-13T20:00:18.971Z,53.71
2023-01-13T20:02:49.846Z,53.74
2023-01-13T20:05:21.492Z,54.09
2023-01-13T20:07:50.832Z,54.64
2023-01-13T20:10:20.044Z,54.61
2023-01-13T20:12:47.490Z,54.68
2023-01-13T20:15:14.719Z,54.48
2023-01-13T20:17:41.933Z,54.50
2023-01-13T20:20:10.779Z,54.49
2023-01-13T20:22:41.140Z,54.36
2023-01-13T20:25:09.070Z,54.32
2023-01-13T20:27:36.737Z,54.32
2023-01-13T20:30:05.626Z,54.23
2023-01-13T20:32:32.643Z,54.17
2023-01-13T20:34:59.668Z,54.10
2023-01-13T20:37:27.020Z,53.98
2023-01-13T20:39:55.549Z,54.23
2023-01-13T20:42:41.441Z,54.26
2023-01-13T20:45:08.932Z,54.21
2023-01-13T20:47:35.935Z,54.11
2023-01-13T20:50:02.951Z,54.19
2023-01-13T20:52:30.059Z,54.13
2023-01-13T20:54:57.129Z,54.09
2023-01-13T20:57:24.169Z,53.98
2023-01-13T20:59:51.430Z,53.96
2023-01-13T21:02:19.398Z,53.85
2023-01-13T21:04:46.359Z,53.88
2023-01-13T21:07:13.425Z,53.92
2023-01-13T21:09:40.457Z,53.98
2023-01-13T21:12:26.599Z,54.01
2023-01-13T21:15:11.828Z,53.97
2023-01-13T21:17:57.594Z,54.01
2023-01-13T21:20:24.622Z,54.05
2023-01-13T21:22:51.774Z,53.91
2023-01-13T21:25:19.412Z,53.86
2023-01-13T21:27:46.464Z,53.85
2023-01-13T21:30:15.672Z,54.02
2023-01-13T21:32:44.276Z,53.90
2023-01-13T21:35:12.749Z,53.88
2023-01-13T21:37:41.624Z,53.87
2023-01-13T21:40:10.424Z,53.72
2023-01-13T21:42:55.973Z,53.91
2023-01-13T21:45:41.705Z,53.74
2023-01-13T21:48:08.694Z,53.80
2023-01-13T21:50:38.047Z,53.69
2023-01-13T21:53:05.208Z,53.83
2023-01-13T21:55:33.044Z,53.94
2023-01-13T21:58:13.641Z,53.80
2023-01-13T22:00:42.916Z,53.86
2023-01-13T22:03:11.525Z,54.38
2023-01-13T22:05:41.526Z,54.72
2023-01-13T22:08:12.360Z,54.76
2023-01-13T22:10:58.114Z,54.95
2023-01-13T22:13:45.385Z,55.09
2023-01-13T22:16:13.473Z,55.22
2023-01-13T22:18:40.700Z,55.58
2023-01-13T22:21:07.988Z,55.47
2023-01-13T22:23:34.998Z,55.66
2023-01-13T22:26:05.918Z,55.72
2023-01-13T22:28:40.184Z,56.07
2023-01-13T22:31:12.388Z,56.09
2023-01-13T22:33:40.230Z,56.19
2023-01-13T22:36:08.180Z,56.25
2023-01-13T22:38:35.284Z,56.23
2023-01-13T22:41:04.931Z,56.47
2023-01-13T22:43:32.651Z,56.42
2023-01-13T22:46:02.103Z,56.49
2023-01-13T22:48:30.249Z,56.79
2023-01-13T22:50:57.146Z,56.72
2023-01-13T22:53:24.137Z,56.79
2023-01-13T22:55:58.656Z,57.02
2023-01-13T22:58:26.461Z,57.06
2023-01-13T23:00:53.664Z,57.23
2023-01-13T23:03:20.788Z,57.32
2023-01-13T23:05:48.893Z,57.49
2023-01-13T23:08:15.882Z,57.71
2023-01-13T23:10:42.877Z,57.86
2023-01-13T23:13:10.582Z,57.89
2023-01-13T23:15:37.818Z,57.89
2023-01-13T23:18:04.709Z,57.97
2023-01-13T23:20:31.720Z,57.96
2023-01-13T23:22:59.653Z,57.82
2023-01-13T23:25:27.397Z,57.63
2023-01-13T23:27:56.727Z,57.62
2023-01-13T23:30:24.171Z,57.66
2023-01-13T23:32:51.251Z,57.61
2023-01-13T23:35:18.682Z,57.54
2023-01-13T23:37:45.712Z,57.51
2023-01-13T23:40:13.631Z,57.35
2023-01-13T23:42:40.611Z,57.44
2023-01-13T23:45:08.340Z,57.35
2023-01-13T23:47:39.530Z,57.36
2023-01-13T23:50:08.829Z,57.31
2023-01-13T23:52:35.899Z,57.25
2023-01-13T23:55:02.876Z,57.21
2023-01-13T23:57:29.837Z,57.19
2023-01-13T23:59:57.019Z,57.24
